sensor_id;sensor_type;location;lat;lon;timestamp;P1;durP1;ratioP1;P2;durP2;ratioP2
25139;SDS011;39015;48.106;-1.682;2023-02-20T06:35:34;1.27;;;0.70;;
25139;SDS011;39015;48.106;-1.682;2023-02-20T06:40:29;2.60;;;0.90;;
25139;SDS011;39015;48.106;-1.682;2023-02-20T06:42:56;1.02;;;0.90;;
25139;SDS011;39015;48.106;-1.682;2023-02-20T06:45:23;1.10;;;0.93;;
25139;SDS011;39015;48.106;-1.682;2023-02-20T06:47:50;1.60;;;0.95;;
25139;SDS011;39015;48.106;-1.682;2023-02-20T06:50:17;0.68;;;0.68;;
25139;SDS011;39015;48.106;-1.682;2023-02-20T06:52:46;0.82;;;0.82;;
25139;SDS011;39015;48.106;-1.682;2023-02-20T06:55:13;0.93;;;0.93;;
25139;SDS011;39015;48.106;-1.682;2023-02-20T06:57:40;2.40;;;1.00;;
25139;SDS011;39015;48.106;-1.682;2023-02-20T07:00:07;2.03;;;1.48;;
25139;SDS011;39015;48.106;-1.682;2023-02-20T07:02:35;2.30;;;1.25;;
25139;SDS011;39015;48.106;-1.682;2023-02-20T07:05:02;2.40;;;0.90;;
25139;SDS011;39015;48.106;-1.682;2023-02-20T07:07:30;0.55;;;0.55;;
25139;SDS011;39015;48.106;-1.682;2023-02-20T07:09:59;1.20;;;1.05;;
25139;SDS011;39015;48.106;-1.682;2023-02-20T07:12:28;0.80;;;0.80;;
25139;SDS011;39015;48.106;-1.682;2023-02-20T07:14:56;1.10;;;0.77;;
25139;SDS011;39015;48.106;-1.682;2023-02-20T07:17:23;0.68;;;0.68;;
25139;SDS011;39015;48.106;-1.682;2023-02-20T07:19:51;0.95;;;0.93;;
25139;SDS011;39015;48.106;-1.682;2023-02-20T07:22:18;0.57;;;0.57;;
25139;SDS011;39015;48.106;-1.682;2023-02-20T07:24:48;0.88;;;0.77;;
25139;SDS011;39015;48.106;-1.682;2023-02-20T07:27:17;2.47;;;0.80;;
25139;SDS011;39015;48.106;-1.682;2023-02-20T07:29:44;0.70;;;0.70;;
25139;SDS011;39015;48.106;-1.682;2023-02-20T07:32:12;0.80;;;0.80;;
25139;SDS011;39015;48.106;-1.682;2023-02-20T07:34:39;1.77;;;1.30;;
25139;SDS011;39015;48.106;-1.682;2023-02-20T07:37:06;1.52;;;0.73;;
25139;SDS011;39015;48.106;-1.682;2023-02-20T07:39:33;0.73;;;0.73;;
25139;SDS011;39015;48.106;-1.682;2023-02-20T07:42:01;0.70;;;0.65;;
25139;SDS011;39015;48.106;-1.682;2023-02-20T07:44:30;0.90;;;0.90;;
25139;SDS011;39015;48.106;-1.682;2023-02-20T07:46:57;0.85;;;0.68;;
25139;SDS011;39015;48.106;-1.682;2023-02-20T07:49:24;2.70;;;0.85;;
25139;SDS011;39015;48.106;-1.682;2023-02-20T07:51:51;2.05;;;0.90;;
25139;SDS011;39015;48.106;-1.682;2023-02-20T07:54:18;1.52;;;1.02;;
25139;SDS011;39015;48.106;-1.682;2023-02-20T07:56:45;1.52;;;0.98;;
25139;SDS011;39015;48.106;-1.682;2023-02-20T07:59:12;1.10;;;0.82;;
25139;SDS011;39015;48.106;-1.682;2023-02-20T08:01:44;1.23;;;1.00;;
25139;SDS011;39015;48.106;-1.682;2023-02-20T08:04:11;0.90;;;0.73;;
25139;SDS011;39015;48.106;-1.682;2023-02-20T08:06:38;3.00;;;1.55;;
25139;SDS011;39015;48.106;-1.682;2023-02-20T08:09:05;2.17;;;1.10;;
25139;SDS011;39015;48.106;-1.682;2023-02-20T08:11:33;1.95;;;1.25;;
25139;SDS011;39015;48.106;-1.682;2023-02-20T08:16:29;1.67;;;1.10;;
25139;SDS011;39015;48.106;-1.682;2023-02-20T08:18:59;3.40;;;1.42;;
25139;SDS011;39015;48.106;-1.682;2023-02-20T08:21:27;1.38;;;0.90;;
25139;SDS011;39015;48.106;-1.682;2023-02-20T08:23:54;2.78;;;1.10;;
25139;SDS011;39015;48.106;-1.682;2023-02-20T08:26:21;2.03;;;1.33;;
25139;SDS011;39015;48.106;-1.682;2023-02-20T08:28:48;0.98;;;0.80;;
25139;SDS011;39015;48.106;-1.682;2023-02-20T08:31:17;1.30;;;0.90;;
25139;SDS011;39015;48.106;-1.682;2023-02-20T08:33:48;1.42;;;0.93;;
25139;SDS011;39015;48.106;-1.682;2023-02-20T08:36:16;1.52;;;0.90;;
25139;SDS011;39015;48.106;-1.682;2023-02-20T08:38:46;0.70;;;0.70;;
25139;SDS011;39015;48.106;-1.682;2023-02-20T08:41:17;2.70;;;0.90;;
25139;SDS011;39015;48.106;-1.682;2023-02-20T08:43:45;1.02;;;0.65;;
25139;SDS011;39015;48.106;-1.682;2023-02-20T08:46:12;1.20;;;0.95;;
25139;SDS011;39015;48.106;-1.682;2023-02-20T08:48:39;1.10;;;1.00;;
25139;SDS011;39015;48.106;-1.682;2023-02-20T08:51:07;1.02;;;0.60;;
25139;SDS011;39015;48.106;-1.682;2023-02-20T08:53:39;1.08;;;0.75;;
25139;SDS011;39015;48.106;-1.682;2023-02-20T08:56:06;2.17;;;0.80;;
25139;SDS011;39015;48.106;-1.682;2023-02-20T08:58:34;0.70;;;0.57;;
25139;SDS011;39015;48.106;-1.682;2023-02-20T09:01:01;0.90;;;0.80;;
25139;SDS011;39015;48.106;-1.682;2023-02-20T09:03:28;0.80;;;0.80;;
25139;SDS011;39015;48.106;-1.682;2023-02-20T09:05:55;2.30;;;1.23;;
25139;SDS011;39015;48.106;-1.682;2023-02-20T09:08:22;1.40;;;0.95;;
25139;SDS011;39015;48.106;-1.682;2023-02-20T09:10:50;1.23;;;1.13;;
25139;SDS011;39015;48.106;-1.682;2023-02-20T09:13:17;0.80;;;0.80;;
25139;SDS011;39015;48.106;-1.682;2023-02-20T09:15:45;1.90;;;0.98;;
25139;SDS011;39015;48.106;-1.682;2023-02-20T09:18:12;0.85;;;0.85;;
25139;SDS011;39015;48.106;-1.682;2023-02-20T09:20:40;1.27;;;1.00;;
25139;SDS011;39015;48.106;-1.682;2023-02-20T09:23:07;0.77;;;0.63;;
25139;SDS011;39015;48.106;-1.682;2023-02-20T09:25:34;1.50;;;0.80;;
25139;SDS011;39015;48.106;-1.682;2023-02-20T09:28:04;1.23;;;0.80;;
25139;SDS011;39015;48.106;-1.682;2023-02-20T09:30:33;1.20;;;1.10;;
25139;SDS011;39015;48.106;-1.682;2023-02-20T09:33:00;0.52;;;0.52;;
25139;SDS011;39015;48.106;-1.682;2023-02-20T09:35:28;0.95;;;0.75;;
25139;SDS011;39015;48.106;-1.682;2023-02-20T09:40:23;1.77;;;0.90;;
25139;SDS011;39015;48.106;-1.682;2023-02-20T09:42:56;0.88;;;0.85;;
25139;SDS011;39015;48.106;-1.682;2023-02-20T09:45:43;0.98;;;0.93;;
25139;SDS011;39015;48.106;-1.682;2023-02-20T09:48:22;0.82;;;0.82;;
25139;SDS011;39015;48.106;-1.682;2023-02-20T09:51:00;1.27;;;0.88;;
25139;SDS011;39015;48.106;-1.682;2023-02-20T09:53:32;2.17;;;0.98;;
25139;SDS011;39015;48.106;-1.682;2023-02-20T09:56:03;0.77;;;0.77;;
25139;SDS011;39015;48.106;-1.682;2023-02-20T09:58:39;1.83;;;1.30;;
25139;SDS011;39015;48.106;-1.682;2023-02-20T10:01:10;1.05;;;1.00;;
25139;SDS011;39015;48.106;-1.682;2023-02-20T10:03:43;1.52;;;0.85;;
25139;SDS011;39015;48.106;-1.682;2023-02-20T10:06:19;1.95;;;0.60;;
25139;SDS011;39015;48.106;-1.682;2023-02-20T10:08:48;2.15;;;0.70;;
25139;SDS011;39015;48.106;-1.682;2023-02-20T10:11:18;2.33;;;0.98;;
25139;SDS011;39015;48.106;-1.682;2023-02-20T10:13:58;0.60;;;0.55;;
25139;SDS011;39015;48.106;-1.682;2023-02-20T10:16:39;0.85;;;0.80;;
25139;SDS011;39015;48.106;-1.682;2023-02-20T10:19:16;1.17;;;0.88;;
25139;SDS011;39015;48.106;-1.682;2023-02-20T10:21:52;0.60;;;0.60;;
25139;SDS011;39015;48.106;-1.682;2023-02-20T10:24:30;0.90;;;0.75;;
25139;SDS011;39015;48.106;-1.682;2023-02-20T10:27:22;0.93;;;0.77;;
25139;SDS011;39015;48.106;-1.682;2023-02-20T10:29:58;0.95;;;0.70;;
25139;SDS011;39015;48.106;-1.682;2023-02-20T10:32:28;0.75;;;0.75;;
25139;SDS011;39015;48.106;-1.682;2023-02-20T10:35:02;0.68;;;0.68;;
25139;SDS011;39015;48.106;-1.682;2023-02-20T10:37:33;1.65;;;1.02;;
25139;SDS011;39015;48.106;-1.682;2023-02-20T10:40:07;1.63;;;1.20;;
25139;SDS011;39015;48.106;-1.682;2023-02-20T10:42:43;0.70;;;0.70;;
25139;SDS011;39015;48.106;-1.682;2023-02-20T10:45:19;0.70;;;0.70;;
25139;SDS011;39015;48.106;-1.682;2023-02-20T10:47:53;1.58;;;0.73;;
25139;SDS011;39015;48.106;-1.682;2023-02-20T10:50:30;3.40;;;0.95;;
25139;SDS011;39015;48.106;-1.682;2023-02-20T10:53:03;1.00;;;0.80;;
25139;SDS011;39015;48.106;-1.682;2023-02-20T10:55:39;1.20;;;0.60;;
25139;SDS011;39015;48.106;-1.682;2023-02-20T10:58:12;0.98;;;0.88;;
25139;SDS011;39015;48.106;-1.682;2023-02-20T11:00:47;0.70;;;0.70;;
25139;SDS011;39015;48.106;-1.682;2023-02-20T11:03:20;1.05;;;0.70;;
25139;SDS011;39015;48.106;-1.682;2023-02-20T11:05:53;1.98;;;1.10;;
25139;SDS011;39015;48.106;-1.682;2023-02-20T11:08:22;1.63;;;0.82;;
25139;SDS011;39015;48.106;-1.682;2023-02-20T11:10:52;1.83;;;0.80;;
25139;SDS011;39015;48.106;-1.682;2023-02-20T11:13:22;0.70;;;0.70;;
25139;SDS011;39015;48.106;-1.682;2023-02-20T11:15:52;0.88;;;0.77;;
25139;SDS011;39015;48.106;-1.682;2023-02-20T11:18:22;1.95;;;1.25;;
25139;SDS011;39015;48.106;-1.682;2023-02-20T11:20:53;3.50;;;0.93;;
25139;SDS011;39015;48.106;-1.682;2023-02-20T11:26:14;2.72;;;1.08;;
25139;SDS011;39015;48.106;-1.682;2023-02-20T11:28:56;1.30;;;0.93;;
25139;SDS011;39015;48.106;-1.682;2023-02-20T11:31:29;2.72;;;1.30;;
25139;SDS011;39015;48.106;-1.682;2023-02-20T11:33:57;1.00;;;0.90;;
25139;SDS011;39015;48.106;-1.682;2023-02-20T11:36:27;1.58;;;0.82;;
25139;SDS011;39015;48.106;-1.682;2023-02-20T11:39:02;2.95;;;1.50;;
25139;SDS011;39015;48.106;-1.682;2023-02-20T11:41:39;1.50;;;1.40;;
25139;SDS011;39015;48.106;-1.682;2023-02-20T11:44:16;3.40;;;1.02;;
25139;SDS011;39015;48.106;-1.682;2023-02-20T11:46:47;2.33;;;1.00;;
25139;SDS011;39015;48.106;-1.682;2023-02-20T11:49:36;0.88;;;0.88;;
25139;SDS011;39015;48.106;-1.682;2023-02-20T11:52:07;3.45;;;1.73;;
25139;SDS011;39015;48.106;-1.682;2023-02-20T11:54:40;2.03;;;1.35;;
25139;SDS011;39015;48.106;-1.682;2023-02-20T11:57:16;3.22;;;1.30;;
25139;SDS011;39015;48.106;-1.682;2023-02-20T11:59:47;1.98;;;1.10;;
25139;SDS011;39015;48.106;-1.682;2023-02-20T12:02:22;2.78;;;1.90;;
25139;SDS011;39015;48.106;-1.682;2023-02-20T12:05:00;0.93;;;0.93;;
25139;SDS011;39015;48.106;-1.682;2023-02-20T12:07:34;2.20;;;1.35;;
25139;SDS011;39015;48.106;-1.682;2023-02-20T12:10:05;3.53;;;1.55;;
25139;SDS011;39015;48.106;-1.682;2023-02-20T12:12:48;3.33;;;1.65;;
25139;SDS011;39015;48.106;-1.682;2023-02-20T12:15:16;3.67;;;1.40;;
25139;SDS011;39015;48.106;-1.682;2023-02-20T12:17:55;3.08;;;1.50;;
25139;SDS011;39015;48.106;-1.682;2023-02-20T12:20:34;2.08;;;1.27;;
25139;SDS011;39015;48.106;-1.682;2023-02-20T12:23:10;1.85;;;1.10;;
25139;SDS011;39015;48.106;-1.682;2023-02-20T12:25:47;1.30;;;1.05;;
25139;SDS011;39015;48.106;-1.682;2023-02-20T12:28:25;5.88;;;1.77;;
25139;SDS011;39015;48.106;-1.682;2023-02-20T12:31:01;6.03;;;1.40;;
25139;SDS011;39015;48.106;-1.682;2023-02-20T12:33:52;2.15;;;1.30;;
25139;SDS011;39015;48.106;-1.682;2023-02-20T12:36:29;4.43;;;1.50;;
25139;SDS011;39015;48.106;-1.682;2023-02-20T12:39:02;2.03;;;1.20;;
25139;SDS011;39015;48.106;-1.682;2023-02-20T12:41:40;5.63;;;1.17;;
25139;SDS011;39015;48.106;-1.682;2023-02-20T12:44:25;2.10;;;1.40;;
25139;SDS011;39015;48.106;-1.682;2023-02-20T12:47:02;2.65;;;1.90;;
25139;SDS011;39015;48.106;-1.682;2023-02-20T12:49:46;1.70;;;0.90;;
25139;SDS011;39015;48.106;-1.682;2023-02-20T12:55:26;2.65;;;1.58;;
25139;SDS011;39015;48.106;-1.682;2023-02-20T13:01:04;3.13;;;1.85;;
25139;SDS011;39015;48.106;-1.682;2023-02-20T13:03:41;4.18;;;1.33;;
25139;SDS011;39015;48.106;-1.682;2023-02-20T13:06:25;2.10;;;1.38;;
25139;SDS011;39015;48.106;-1.682;2023-02-20T13:09:08;2.90;;;1.25;;
25139;SDS011;39015;48.106;-1.682;2023-02-20T13:11:51;2.78;;;1.80;;
25139;SDS011;39015;48.106;-1.682;2023-02-20T13:14:30;3.00;;;1.60;;
25139;SDS011;39015;48.106;-1.682;2023-02-20T13:17:21;1.45;;;1.35;;
25139;SDS011;39015;48.106;-1.682;2023-02-20T13:20:04;4.38;;;1.33;;
25139;SDS011;39015;48.106;-1.682;2023-02-20T13:22:45;1.52;;;1.15;;
25139;SDS011;39015;48.106;-1.682;2023-02-20T13:25:37;2.80;;;1.50;;
25139;SDS011;39015;48.106;-1.682;2023-02-20T13:31:16;2.72;;;1.55;;
25139;SDS011;39015;48.106;-1.682;2023-02-20T13:33:46;6.68;;;2.13;;
25139;SDS011;39015;48.106;-1.682;2023-02-20T13:48:18;3.05;;;1.90;;
25139;SDS011;39015;48.106;-1.682;2023-02-20T13:56:55;3.05;;;1.65;;
25139;SDS011;39015;48.106;-1.682;2023-02-20T13:59:29;4.65;;;2.13;;
25139;SDS011;39015;48.106;-1.682;2023-02-20T14:02:03;3.90;;;1.52;;
25139;SDS011;39015;48.106;-1.682;2023-02-20T14:04:50;3.63;;;1.50;;
25139;SDS011;39015;48.106;-1.682;2023-02-20T14:07:32;3.25;;;1.67;;
25139;SDS011;39015;48.106;-1.682;2023-02-20T14:10:04;3.65;;;2.00;;
25139;SDS011;39015;48.106;-1.682;2023-02-20T14:12:33;3.33;;;2.25;;
25139;SDS011;39015;48.106;-1.682;2023-02-20T14:15:03;1.98;;;1.55;;
25139;SDS011;39015;48.106;-1.682;2023-02-20T14:17:32;1.92;;;1.38;;
25139;SDS011;39015;48.106;-1.682;2023-02-20T14:20:00;2.88;;;1.58;;
25139;SDS011;39015;48.106;-1.682;2023-02-20T14:22:29;4.30;;;1.90;;
25139;SDS011;39015;48.106;-1.682;2023-02-20T14:28:09;2.50;;;1.55;;
25139;SDS011;39015;48.106;-1.682;2023-02-20T14:30:39;5.03;;;1.58;;
25139;SDS011;39015;48.106;-1.682;2023-02-20T14:33:08;2.92;;;1.60;;
25139;SDS011;39015;48.106;-1.682;2023-02-20T14:35:54;8.50;;;2.58;;
25139;SDS011;39015;48.106;-1.682;2023-02-20T14:38:33;4.22;;;1.27;;
25139;SDS011;39015;48.106;-1.682;2023-02-20T14:41:11;4.07;;;1.75;;
25139;SDS011;39015;48.106;-1.682;2023-02-20T14:43:42;1.98;;;1.45;;
25139;SDS011;39015;48.106;-1.682;2023-02-20T14:46:17;7.40;;;2.83;;
25139;SDS011;39015;48.106;-1.682;2023-02-20T14:48:48;4.35;;;1.67;;
25139;SDS011;39015;48.106;-1.682;2023-02-20T14:51:15;8.07;;;2.20;;
25139;SDS011;39015;48.106;-1.682;2023-02-20T14:53:55;8.10;;;2.00;;
25139;SDS011;39015;48.106;-1.682;2023-02-20T14:56:27;5.53;;;1.85;;
25139;SDS011;39015;48.106;-1.682;2023-02-20T14:58:55;5.32;;;1.90;;
25139;SDS011;39015;48.106;-1.682;2023-02-20T15:01:34;2.17;;;1.98;;
25139;SDS011;39015;48.106;-1.682;2023-02-20T15:04:05;5.20;;;2.55;;
25139;SDS011;39015;48.106;-1.682;2023-02-20T15:06:37;5.38;;;3.15;;
25139;SDS011;39015;48.106;-1.682;2023-02-20T15:09:06;2.92;;;1.42;;
25139;SDS011;39015;48.106;-1.682;2023-02-20T15:11:35;3.90;;;1.65;;
25139;SDS011;39015;48.106;-1.682;2023-02-20T15:14:17;4.60;;;1.77;;
25139;SDS011;39015;48.106;-1.682;2023-02-20T15:16:48;3.20;;;1.50;;
25139;SDS011;39015;48.106;-1.682;2023-02-20T15:19:33;3.60;;;1.75;;
25139;SDS011;39015;48.106;-1.682;2023-02-20T15:22:02;3.33;;;1.70;;
25139;SDS011;39015;48.106;-1.682;2023-02-20T15:24:32;3.67;;;1.80;;
25139;SDS011;39015;48.106;-1.682;2023-02-20T15:27:08;13.55;;;2.45;;
25139;SDS011;39015;48.106;-1.682;2023-02-20T15:29:37;2.83;;;1.83;;
25139;SDS011;39015;48.106;-1.682;2023-02-20T15:32:13;5.57;;;2.28;;
25139;SDS011;39015;48.106;-1.682;2023-02-20T15:34:48;11.30;;;2.33;;
25139;SDS011;39015;48.106;-1.682;2023-02-20T15:37:20;5.97;;;1.75;;
25139;SDS011;39015;48.106;-1.682;2023-02-20T15:39:50;3.05;;;1.67;;
25139;SDS011;39015;48.106;-1.682;2023-02-20T15:42:19;2.78;;;1.83;;
25139;SDS011;39015;48.106;-1.682;2023-02-20T15:44:48;2.70;;;1.40;;
25139;SDS011;39015;48.106;-1.682;2023-02-20T15:47:16;5.68;;;1.95;;
25139;SDS011;39015;48.106;-1.682;2023-02-20T15:49:43;4.82;;;1.65;;
25139;SDS011;39015;48.106;-1.682;2023-02-20T15:52:13;4.45;;;2.50;;
25139;SDS011;39015;48.106;-1.682;2023-02-20T15:54:48;2.83;;;1.60;;
25139;SDS011;39015;48.106;-1.682;2023-02-20T15:57:18;3.92;;;2.10;;
25139;SDS011;39015;48.106;-1.682;2023-02-20T15:59:46;12.98;;;3.08;;
25139;SDS011;39015;48.106;-1.682;2023-02-20T16:02:13;5.50;;;2.15;;
25139;SDS011;39015;48.106;-1.682;2023-02-20T16:04:45;2.08;;;1.50;;
25139;SDS011;39015;48.106;-1.682;2023-02-20T16:07:13;4.05;;;1.85;;
25139;SDS011;39015;48.106;-1.682;2023-02-20T16:09:40;2.97;;;1.90;;
25139;SDS011;39015;48.106;-1.682;2023-02-20T16:12:09;1.48;;;1.38;;
25139;SDS011;39015;48.106;-1.682;2023-02-20T16:14:41;3.35;;;1.30;;
25139;SDS011;39015;48.106;-1.682;2023-02-20T16:17:10;3.35;;;1.20;;
25139;SDS011;39015;48.106;-1.682;2023-02-20T16:19:46;3.15;;;1.67;;
25139;SDS011;39015;48.106;-1.682;2023-02-20T16:22:13;2.95;;;1.60;;
25139;SDS011;39015;48.106;-1.682;2023-02-20T16:24:40;4.65;;;1.77;;
25139;SDS011;39015;48.106;-1.682;2023-02-20T16:27:15;4.40;;;2.10;;
25139;SDS011;39015;48.106;-1.682;2023-02-20T16:29:46;3.90;;;2.10;;
25139;SDS011;39015;48.106;-1.682;2023-02-20T16:32:24;2.05;;;1.38;;
25139;SDS011;39015;48.106;-1.682;2023-02-20T16:34:56;3.05;;;1.80;;
25139;SDS011;39015;48.106;-1.682;2023-02-20T16:37:25;2.63;;;2.05;;
25139;SDS011;39015;48.106;-1.682;2023-02-20T16:39:53;8.68;;;1.58;;
25139;SDS011;39015;48.106;-1.682;2023-02-20T16:42:25;7.40;;;1.50;;
25139;SDS011;39015;48.106;-1.682;2023-02-20T16:44:54;4.95;;;2.05;;
25139;SDS011;39015;48.106;-1.682;2023-02-20T16:47:24;8.40;;;1.92;;
25139;SDS011;39015;48.106;-1.682;2023-02-20T16:49:52;2.63;;;1.50;;
25139;SDS011;39015;48.106;-1.682;2023-02-20T16:52:24;3.45;;;1.65;;
25139;SDS011;39015;48.106;-1.682;2023-02-20T16:54:53;3.83;;;1.75;;
25139;SDS011;39015;48.106;-1.682;2023-02-20T16:57:22;2.92;;;1.60;;
25139;SDS011;39015;48.106;-1.682;2023-02-20T16:59:50;5.10;;;2.35;;
25139;SDS011;39015;48.106;-1.682;2023-02-20T17:02:18;4.03;;;2.13;;
25139;SDS011;39015;48.106;-1.682;2023-02-20T17:04:47;4.38;;;1.83;;
25139;SDS011;39015;48.106;-1.682;2023-02-20T17:07:15;4.78;;;2.22;;
25139;SDS011;39015;48.106;-1.682;2023-02-20T17:09:44;7.22;;;2.05;;
25139;SDS011;39015;48.106;-1.682;2023-02-20T17:12:11;3.95;;;1.65;;
25139;SDS011;39015;48.106;-1.682;2023-02-20T17:14:41;4.22;;;2.20;;
25139;SDS011;39015;48.106;-1.682;2023-02-20T17:17:08;7.38;;;2.60;;
25139;SDS011;39015;48.106;-1.682;2023-02-20T17:19:35;2.38;;;1.58;;
25139;SDS011;39015;48.106;-1.682;2023-02-20T17:22:10;3.28;;;2.20;;
25139;SDS011;39015;48.106;-1.682;2023-02-20T17:24:46;3.08;;;1.52;;
25139;SDS011;39015;48.106;-1.682;2023-02-20T17:27:20;2.78;;;1.92;;
25139;SDS011;39015;48.106;-1.682;2023-02-20T17:29:48;5.75;;;2.40;;
25139;SDS011;39015;48.106;-1.682;2023-02-20T17:32:18;4.90;;;1.80;;
25139;SDS011;39015;48.106;-1.682;2023-02-20T17:34:56;12.13;;;2.75;;
25139;SDS011;39015;48.106;-1.682;2023-02-20T17:37:23;4.65;;;2.20;;
25139;SDS011;39015;48.106;-1.682;2023-02-20T17:39:56;4.30;;;2.30;;
25139;SDS011;39015;48.106;-1.682;2023-02-20T17:42:23;2.92;;;1.83;;
25139;SDS011;39015;48.106;-1.682;2023-02-20T17:44:50;5.13;;;2.95;;
25139;SDS011;39015;48.106;-1.682;2023-02-20T17:47:19;3.17;;;2.00;;
25139;SDS011;39015;48.106;-1.682;2023-02-20T17:49:47;6.82;;;2.75;;
25139;SDS011;39015;48.106;-1.682;2023-02-20T17:52:16;4.63;;;2.65;;
25139;SDS011;39015;48.106;-1.682;2023-02-20T17:54:43;5.32;;;2.45;;
25139;SDS011;39015;48.106;-1.682;2023-02-20T17:57:13;6.18;;;2.92;;
25139;SDS011;39015;48.106;-1.682;2023-02-20T17:59:43;6.60;;;3.22;;
25139;SDS011;39015;48.106;-1.682;2023-02-20T18:02:11;9.23;;;3.08;;
25139;SDS011;39015;48.106;-1.682;2023-02-20T18:04:39;2.80;;;2.03;;
25139;SDS011;39015;48.106;-1.682;2023-02-20T18:07:07;4.25;;;1.90;;
25139;SDS011;39015;48.106;-1.682;2023-02-20T18:09:34;2.97;;;1.90;;
25139;SDS011;39015;48.106;-1.682;2023-02-20T18:12:02;5.68;;;1.95;;
25139;SDS011;39015;48.106;-1.682;2023-02-20T18:14:34;5.35;;;2.63;;
25139;SDS011;39015;48.106;-1.682;2023-02-20T18:17:21;4.30;;;2.65;;
25139;SDS011;39015;48.106;-1.682;2023-02-20T18:20:09;7.82;;;2.72;;
25139;SDS011;39015;48.106;-1.682;2023-02-20T18:22:49;5.65;;;2.78;;
25139;SDS011;39015;48.106;-1.682;2023-02-20T18:25:16;8.90;;;3.63;;
25139;SDS011;39015;48.106;-1.682;2023-02-20T18:27:44;11.93;;;3.00;;
25139;SDS011;39015;48.106;-1.682;2023-02-20T18:30:13;4.35;;;2.08;;
25139;SDS011;39015;48.106;-1.682;2023-02-20T18:32:40;6.00;;;3.05;;
25139;SDS011;39015;48.106;-1.682;2023-02-20T18:35:07;9.38;;;3.38;;
25139;SDS011;39015;48.106;-1.682;2023-02-20T18:37:34;7.28;;;2.45;;
25139;SDS011;39015;48.106;-1.682;2023-02-20T18:40:03;4.77;;;2.97;;
25139;SDS011;39015;48.106;-1.682;2023-02-20T18:42:31;5.57;;;3.15;;
25139;SDS011;39015;48.106;-1.682;2023-02-20T18:44:58;6.28;;;2.92;;
25139;SDS011;39015;48.106;-1.682;2023-02-20T18:47:28;4.10;;;2.90;;
25139;SDS011;39015;48.106;-1.682;2023-02-20T18:49:55;11.85;;;3.28;;
25139;SDS011;39015;48.106;-1.682;2023-02-20T18:52:22;7.18;;;3.30;;
25139;SDS011;39015;48.106;-1.682;2023-02-20T18:54:49;8.77;;;3.20;;
25139;SDS011;39015;48.106;-1.682;2023-02-20T18:57:16;9.77;;;4.70;;
25139;SDS011;39015;48.106;-1.682;2023-02-20T18:59:43;7.15;;;3.33;;
25139;SDS011;39015;48.106;-1.682;2023-02-20T19:02:11;9.25;;;3.53;;
25139;SDS011;39015;48.106;-1.682;2023-02-20T19:04:40;7.75;;;3.72;;
25139;SDS011;39015;48.106;-1.682;2023-02-20T19:07:07;9.32;;;4.85;;
25139;SDS011;39015;48.106;-1.682;2023-02-20T19:09:34;10.07;;;4.85;;
25139;SDS011;39015;48.106;-1.682;2023-02-20T19:12:03;5.72;;;3.50;;
25139;SDS011;39015;48.106;-1.682;2023-02-20T19:14:31;7.60;;;4.25;;
25139;SDS011;39015;48.106;-1.682;2023-02-20T19:16:59;6.53;;;3.63;;
25139;SDS011;39015;48.106;-1.682;2023-02-20T19:19:28;8.50;;;3.95;;
25139;SDS011;39015;48.106;-1.682;2023-02-20T19:21:58;10.07;;;4.45;;
25139;SDS011;39015;48.106;-1.682;2023-02-20T19:24:25;9.88;;;4.93;;
25139;SDS011;39015;48.106;-1.682;2023-02-20T19:26:52;7.22;;;4.00;;
25139;SDS011;39015;48.106;-1.682;2023-02-20T19:29:19;10.10;;;5.18;;
25139;SDS011;39015;48.106;-1.682;2023-02-20T19:31:46;10.30;;;4.90;;
25139;SDS011;39015;48.106;-1.682;2023-02-20T19:34:13;8.95;;;4.65;;
25139;SDS011;39015;48.106;-1.682;2023-02-20T19:36:41;11.23;;;5.77;;
25139;SDS011;39015;48.106;-1.682;2023-02-20T19:39:10;11.60;;;4.25;;
25139;SDS011;39015;48.106;-1.682;2023-02-20T19:41:38;11.73;;;4.93;;
25139;SDS011;39015;48.106;-1.682;2023-02-20T19:44:06;12.05;;;5.20;;
25139;SDS011;39015;48.106;-1.682;2023-02-20T19:46:33;9.38;;;4.28;;
25139;SDS011;39015;48.106;-1.682;2023-02-20T19:49:00;11.15;;;4.85;;
25139;SDS011;39015;48.106;-1.682;2023-02-20T19:51:33;8.77;;;5.15;;
25139;SDS011;39015;48.106;-1.682;2023-02-20T19:54:03;10.20;;;4.85;;
25139;SDS011;39015;48.106;-1.682;2023-02-20T19:56:35;12.60;;;4.50;;
25139;SDS011;39015;48.106;-1.682;2023-02-20T19:59:03;7.93;;;4.47;;
25139;SDS011;39015;48.106;-1.682;2023-02-20T20:01:34;9.90;;;3.95;;
25139;SDS011;39015;48.106;-1.682;2023-02-20T20:04:07;7.97;;;4.97;;
25139;SDS011;39015;48.106;-1.682;2023-02-20T20:06:35;8.80;;;4.38;;
25139;SDS011;39015;48.106;-1.682;2023-02-20T20:09:05;9.10;;;4.55;;
25139;SDS011;39015;48.106;-1.682;2023-02-20T20:11:34;8.35;;;4.03;;
25139;SDS011;39015;48.106;-1.682;2023-02-20T20:14:01;8.85;;;4.10;;
25139;SDS011;39015;48.106;-1.682;2023-02-20T20:16:28;7.50;;;4.28;;
25139;SDS011;39015;48.106;-1.682;2023-02-20T20:18:58;8.63;;;4.57;;
25139;SDS011;39015;48.106;-1.682;2023-02-20T20:21:25;9.50;;;4.57;;
25139;SDS011;39015;48.106;-1.682;2023-02-20T20:23:53;9.45;;;5.38;;
25139;SDS011;39015;48.106;-1.682;2023-02-20T20:26:22;8.30;;;4.93;;
25139;SDS011;39015;48.106;-1.682;2023-02-20T20:28:52;8.45;;;4.07;;
25139;SDS011;39015;48.106;-1.682;2023-02-20T20:31:20;9.57;;;5.43;;
25139;SDS011;39015;48.106;-1.682;2023-02-20T20:33:49;10.93;;;5.20;;
25139;SDS011;39015;48.106;-1.682;2023-02-20T20:36:17;9.35;;;4.32;;
25139;SDS011;39015;48.106;-1.682;2023-02-20T20:38:44;10.45;;;5.80;;
25139;SDS011;39015;48.106;-1.682;2023-02-20T20:41:12;10.88;;;5.40;;
25139;SDS011;39015;48.106;-1.682;2023-02-20T20:43:41;12.52;;;6.28;;
25139;SDS011;39015;48.106;-1.682;2023-02-20T20:46:09;11.15;;;5.93;;
25139;SDS011;39015;48.106;-1.682;2023-02-20T20:48:39;11.80;;;6.07;;
25139;SDS011;39015;48.106;-1.682;2023-02-20T20:51:07;16.40;;;5.57;;
25139;SDS011;39015;48.106;-1.682;2023-02-20T20:53:37;17.60;;;5.45;;
25139;SDS011;39015;48.106;-1.682;2023-02-20T20:56:11;9.40;;;5.45;;
25139;SDS011;39015;48.106;-1.682;2023-02-20T20:58:51;22.75;;;5.65;;
25139;SDS011;39015;48.106;-1.682;2023-02-20T21:01:21;13.80;;;6.03;;
25139;SDS011;39015;48.106;-1.682;2023-02-20T21:03:48;12.27;;;6.22;;
25139;SDS011;39015;48.106;-1.682;2023-02-20T21:06:23;15.32;;;7.03;;
25139;SDS011;39015;48.106;-1.682;2023-02-20T21:08:54;12.48;;;5.50;;
25139;SDS011;39015;48.106;-1.682;2023-02-20T21:11:21;14.93;;;6.32;;
25139;SDS011;39015;48.106;-1.682;2023-02-20T21:13:48;12.63;;;5.32;;
25139;SDS011;39015;48.106;-1.682;2023-02-20T21:16:15;12.98;;;6.13;;
25139;SDS011;39015;48.106;-1.682;2023-02-20T21:18:44;12.70;;;5.53;;
25139;SDS011;39015;48.106;-1.682;2023-02-20T21:21:11;10.15;;;4.78;;
25139;SDS011;39015;48.106;-1.682;2023-02-20T21:23:39;8.75;;;5.38;;
25139;SDS011;39015;48.106;-1.682;2023-02-20T21:26:09;10.77;;;5.22;;
25139;SDS011;39015;48.106;-1.682;2023-02-20T21:28:36;8.73;;;4.63;;
25139;SDS011;39015;48.106;-1.682;2023-02-20T21:31:03;11.23;;;5.78;;
